Find this page online at www.coolrunning.com/results/08/ma/Dec6_Worces_set1.shtml

Worcester Jolly Jaunt

Worcester, MA, December 6, 2008

[AWARDS ]

OVERALL

                                                                      Page 1
                               5K RACE RESULTS
                           JOLLY JAUNT WORCESTER
                               5K ROAD RACE
                   Worcester, MA December 6, 2008 9:00AM
 
Timing and Scoring by: ACCU-SPEC (413) 467-7354           http://accuspec.home.comcast.net
Place Name                No.   Ag Div/Tot  Div   City            St Time   Pace  
===== =================== ===== == ======== ===== =============== == ============ 
    1 PETER ZONA           2194 17   1/9    M1729 GRAFTON         MA   18:55  6:06 
    2 KENNETH HUTTON        557 42   1/37   M3054 MARLBOROUGH     MA   19:01  6:08 
    3 GREGORY LAFOND       2392 33   2/37   M3054 MARLBOROUGH     MA   19:27  6:16 
    4 LESTER FORGIT        2394 51   3/37   M3054 WORCESTER       MA   20:28  6:35 
    5 MICHAEL BLAESS        511 19   2/9    M1729 PORTSMOUTH      RI   20:55  6:44 
    6 KT RICH               592 19   1/14   F1729 WESTBOROUGH     MA   20:58  6:45 
    7 MARK BROWNELL         514 43   4/37   M3054 DOUGLAS         MA   20:59  6:46 
    8 FRANCIS SONG          595 21   3/9    M1729 WORCESTER       MA   21:05  6:47 
    9 GEORGE BURNS          518 40   5/37   M3054 SHREWSBURY      MA   21:07  6:48 
   10 MICHAEL NEMERGUT      580 45   6/37   M3054 UPTON           MA   21:14  6:50 
   11 JACK LEGER            564 12   1/8    M0116 AUBURN          MA   21:22  6:53 
   12 NATHANIEL UTTARO     2197 34   7/37   M3054 SHREWSBURY      MA   21:24  6:53 
   13 KATHY MURPHY          573 51   1/43   F3054 WORCESTER       MA   21:27  6:55 
   14 BRIAN WALSH          2180 42   8/37   M3054 ROSLNDALE       MA   21:39  6:59 
   15 BENITO REYES          590 52   9/37   M3054 SOUTHBRIDGE     MA   21:52  7:03 
   16 RICH TORONTO         2176 46  10/37   M3054 NORTHBORO       MA   22:01  7:06 
   17 TRACY MURPHY          574 39   2/43   F3054 AUBURN          MA   22:17  7:11 
   18 MARC THERIAULT       2173 26   4/9    M1729 ASHBURNHAM      MA   22:26  7:14 
   19 ADAM TURNER          2177 26   5/9    M1729 WEST BOYLSTON   MA   22:31  7:15 
   20 MILES CAHILL         2393 39  11/37   M3054 HOPKINTON       MA   22:34  7:16 
   21 KATHLEEN WANAT       2181 34   3/43   F3054 WORCESTER       MA   22:37  7:17 
   22 KARA SQUIRES          596 21   2/14   F1729 WORCESTER       MA   22:40  7:18 
   23 KEVIN FOLEY-FOSTER    545 12   2/8    M0116 AUBURN          MA   22:41  7:18 
   24 CRAIG ORNELL          583 49  12/37   M3054 CHARLTON        MA   22:42  7:19 
   25 BRENDA MORRIS         571 42   4/43   F3054 WORCESTER       MA   22:44  7:19 
   26 AIDAN FOLEY-FOSTER    544 12   3/8    M0116 AUBURN          MA   22:59  7:24 
   27 KAYLA ALMSTROM        500 12   1/7    F0116 AUBURN          MA   23:00  7:25 
   28 SHERRI PITCHER        587 39   5/43   F3054 WORCESTER       MA   23:01  7:25 
   29 CHRISTOPHER LUDWIG   2395 42  13/37   M3054 MAYNARD         MA   23:03  7:25 
   30 LON LOKEN             565 58   1/4    M5599 GRAFTON         MA   23:15  7:29 
   31 SHEILA FINNEGAN       541 40   6/43   F3054 HOPKINTON       MA   23:35  7:36 
   32 VICKI PELLERIN        586 34   7/43   F3054 WESTBOROUGH     MA   23:47  7:40 
   33 JOSHUA WEBB          2182 39  14/37   M3054 WORCESTER       MA   23:48  7:40 
   34 JULIE HACKENSON       554 46   8/43   F3054 WEBSTER         MA   24:12  7:48 
   35 UNKNOWN                 0                                        24:13  7:48 
   36 ERIC HACKENSON        555 20   6/9    M1729 WEBSTER         MA   24:21  7:51 
   37 BRIANNA DOCIMO       2187 18   3/14   F1729 SHREWSBURY      MA   24:27  7:52 
   38 SANDEE FILLIOS        540 35   9/43   F3054 MARLBOROUGH     MA   24:28  7:53 
   39 RACHEL CARRAGER       521 34  10/43   F3054 CHARLTON        MA   24:30  7:53 
   40 JENNIE STEPHENS       599 33  11/43   F3054 SHREWSBURY      MA   24:38  7:56 
   41 ANDY BERNABEI         510 34  15/37   M3054 LEICESTER       MA   24:40  7:57 
   42 PAMELA HOULIHAN       556 40  12/43   F3054 HOLDEN          MA   24:42  7:57 
   43 GREG MARGAGNONI      2399 30  16/37   M3054 SHREWSBURY      MA   24:43  7:58 
   44 RICHARD MEAGHER      2397 41  17/37   M3054 WORCESTER       MA   24:44  7:58 
   45 MIKE FLANAGAN         542 26   7/9    M1729 WORCESTER       MA   24:48  7:59 
   46 MARK DIXON           2391 47  18/37   M3054 WATERTOWN       MA   24:53  8:01 
   47 COLBY ORNELL          584 15   2/7    F0116 CHARLTON        MA   24:59  8:03 
   48 AMANDA VAN VEEN      2178 31  13/43   F3054 CHARLESTOWN     MA   25:00  8:03 
   49 THOMAS QUINN          588 39  19/37   M3054 CHARLESTOWN     MA   25:07  8:05 
   50 CYNTHIA MALNICOF      566 38  14/43   F3054 HOLDEN          MA   25:10  8:06 
   51 SEAN KENNEY          2191 43  20/37   M3054 NORTHBOROUGH    MA   25:49  8:19 
   52 ED PAWLOWSKI          585 46  21/37   M3054 ATTLEBORO       MA   25:49  8:19 
   53 BOB DOCIMO            535 45  22/37   M3054 SHREWSBRUY      MA   26:08  8:25 
   54 SHANE BELLINGHAM      508 19   8/9    M1729 GOFFSTOWN       NH   26:09  8:25 
   55 GLENN COLLINS         523 46  23/37   M3054 AUBURN          MA   26:09  8:25 
   56 ERIN FAUCHER          539 24   4/14   F1729 NORTH GROSVENOR CT   26:12  8:26 
   57 LYNN THORNTON        2175 49  15/43   F3054 HOLDEN          MA   26:30  8:32 
   58 JULIETTE KROVI        563 41  16/43   F3054 SHREWSBURY      MA   26:30  8:32 
   59 CONNOR AUBUCHONT      502 12   4/8    M0116 AUBURN          MA   26:31  8:33 
   60 GRACE KENNEDY         562 19   5/14   F1729 WORCESTER       MA   26:38  8:35 
   61 CARLA MURRAY          577 56   1/2    F5599 CUMBERLAND      RI   26:44  8:37 
   62 PETER BAKKALA         507 43  24/37   M3054 NORTHBOROUGH    MA   26:56  8:40 
   63 DONALD BAIMA          506 61   2/4    M5599 SHREWSBURY      MA   27:03  8:43 
   64 TARA BENNETT          509 38  17/43   F3054 NEW BRAINTREE   MA   27:31  8:52 
   65 AMY YORK             2186 37  18/43   F3054 BROOKLINE       NH   27:42  8:55 
   66 ALICYN GILBERTO       551 19   6/14   F1729 WESTON          MA   27:43  8:56 
   67 BRIAN FLEURY          543 36  25/37   M3054 WORCESTER       MA   27:46  8:57 
   68 AARON FRANCISCO       547 47  26/37   M3054 WORCESTER       MA   27:48  8:57 
   69 KIM AUEN              503 32  19/43   F3054 SHREWSBURY      MA   27:49  8:57 
   70 SCOTT AUEN            504 41  27/37   M3054 SHREWSBURY      MA   27:50  8:58 
   71 KEN KAREY             560 50  28/37   M3054 BOLTON          MA   27:54  8:59 
   72 ALLISON PELLAND      2200 26   7/14   F1729 WORCESTER       MA   27:58  9:00 
   73 KATE RYDER           2398 38  20/43   F3054 WORCESTER       MA   28:18  9:07 
   74 NANCY AUGER           505 40  21/43   F3054 NORTH GRAFTON   MA   28:23  9:08 
   75 MAURA MCCARTHY        569 46  22/43   F3054 HOLDEN          MA   28:24  9:09 
   76 RONDA FRANEK          548 40  23/43   F3054 WEBSTER         MA   29:01  9:21 
   77 MATTHEW MORRISSEY     572 12   5/8    M0116 AUBURN          MA   29:01  9:21 
   78 ERIC GOUDREAU         552 12   6/8    M0116 AUBURN          MA   29:07  9:23 
   79 JAY STRANIERI        2170 58   3/4    M5599 MILLBURY        MA   29:10  9:24 
   80 SHARI GOUDREAU       2189 42  24/43   F3054 AUBURN          MA   29:19  9:27 
   81 ELLEN CONWAY          527 14   3/7    F0116 ACTON           MA   29:20  9:27 
   82 PATRICIA CONWAY       526 48  25/43   F3054 ACTON           MA   29:20  9:27 
   83 KIMBERLY BARRISS     2396 15   4/7    F0116 NORTH READING   MA   29:29  9:30 
   84 JENNIFER SECAUR       594 37  26/43   F3054 GRAFTON         MA   29:33  9:31 
   85 BRITTANY COULSON      528 23   8/14   F1729 BRIGHTON        MA   29:33  9:31 
   86 MICHELLE RODITI       593 23   9/14   F1729 LEXINGTON       MA   29:35  9:32 
   87 BRIDGET CANTY         519 34  27/43   F3054 WEBSTER         MA   29:36  9:32 
   88 KEITH KATSOULIS       561 45  29/37   M3054 NORTH OXFORD    MA   29:45  9:35 
   89 RAQUEL MCGINNIS       570 35  28/43   F3054 SHREWSBURY      MA   29:52  9:37 
   90 STEPHEN DIXON         534 48  30/37   M3054 SHREWSBURY      MA   29:54  9:38 
   91 MICHAEL WILSON       2184 21   9/9    M1729 SHREWSBURY      MA   30:09  9:43 
   92 KATHLEEN CROWLEY     2198 44  29/43   F3054 WORCESTER       MA   30:22  9:47 
   93 DIANE MARA            567 46  30/43   F3054 AUBURN          MA   30:23  9:47 
   94 JOE O'CONNOR          581 49  31/37   M3054 STERLING        MA   30:24  9:47 
   95 NOREEN DILLON         533 39  31/43   F3054 WORCESTER       MA   30:26  9:48 
   96 GLENETTE FORD-OVINS   546 54  32/43   F3054 HOLLISTON       MA   30:26  9:48 
   97 PETER BRADLEY        2199 60   4/4    M5599 WESTBOROUGH     MA   30:27  9:48 
   98 JOANNE BURKE          516 41  33/43   F3054 AUBURN          MA   30:28  9:49 
   99 PATRICK CANTY         520 41  32/37   M3054 CAMBRIDGE       MA   30:29  9:49 
  100 LAUREN THOMAS        2174 28  10/14   F1729 SOMERVILLE      MA   30:45  9:54 
  101 LAURA ANDREWS         501 48  34/43   F3054 BOLTON          MA   30:55  9:57 
  102 PAUL LESIEUR         2190 47  33/37   M3054 OXFORD          MA   31:03 10:00 
  103 STEPH GALVIN          550 25  11/14   F1729 RUTLAND         MA   31:03 10:00 
  104 ERIN BURKE            517 11   5/7    F0116 AUBURN          MA   31:09 10:02 
  105 PAULETTE BUCKLEY     2193 30  35/43   F3054 DUDLEY          MA   31:34 10:10 
  106 JOHN STUDARUS        2474 36  34/37   M3054 SAN DIEGO       CA   32:06 10:20 
  107 AMY STUCCHI          2171 26  12/14   F1729 WESTBOROUGH     MA   32:08 10:21 
  108 TIM STUCCHI          2172 54  35/37   M3054 WESTBOROUGH     MA   32:15 10:23 
  109 COLLETTE DALE         531 43  36/43   F3054 NORTH GRAFTON   MA   32:19 10:24 
  110 CAMDEN MURPHY         575 12   7/8    M0116 AUBURN          MA   32:27 10:27 
  111 LIZZY MYSHRALL        579 15   6/7    F0116 WORCESTER       MA   32:28 10:27 
  112 KATE MYSHRALL         578 45  37/43   F3054 WORCESTER       MA   32:31 10:28 
  113 ANNE WETTENGEL       2183 52  38/43   F3054 WORCESTER       MA   33:08 10:40 
  114 RACHEL REYES          591 43  39/43   F3054 WOODSTOCK       CT   33:47 10:53 
  115 ALICIA MAY            568 32  40/43   F3054 WORCESTER       MA   33:48 10:53 
  116 REBECCA NICKERSON    2473 38  41/43   F3054 WORCESTER       MA   33:48 10:53 
  117 DAVID NICKERSON      2472 39  36/37   M3054 WORCESTER       MA   34:26 11:05 
  118 KIMBERLY DUNBAR       537 25  13/14   F1729 WALTHAM         MA   34:27 11:06 
  119 MONICA COX            529 25  14/14   F1729 WORCESTER       MA   34:52 11:14 
  120 NICOLE LANGLOIS      2196 33  42/43   F3054 WORCESTER       MA   34:53 11:14 
  121 DEREK RING           2195 34  37/37   M3054 WORCESTER       MA   35:33 11:27 
  122 BRYCE GRENIER         553 14   8/8    M0116 SHREWSBURY      MA   35:34 11:27 
  123 BONNIE BRYCE          515 47  43/43   F3054 SHREWSBURY      MA   35:54 11:34 
  124 KASIA COLLINS        2188 13   7/7    F0116 AUBURN          MA   35:59 11:35 
  125 SHEILA JONES          559 57   2/2    F5599 WEST BOYLSTON   MA   36:00 11:36